• location
  • image
mod_vvisit_countermod_vvisit_countermod_vvisit_countermod_vvisit_countermod_vvisit_countermod_vvisit_counter
mod_vvisit_counterToday150
mod_vvisit_counterYesterday567
mod_vvisit_counterThis week5961
mod_vvisit_counterLast week16960
mod_vvisit_counterThis month35259
mod_vvisit_counterLast month35663
mod_vvisit_counterAll days637875

We have: 71 guests, 1 bots online
Your IP: 54.145.81.105
 , 
Today: Apr 30, 2017
Airport / Company / List of services

List of services

  

Services of Siauliai International Airport:

 

Leading (follow me)

Ground services

Aircraft loading/unloading

Aircraft parking

Aircraft security

Aircraft fuel supply

Passenger baggage service

Business class passenger service

Submission of information to passengers

Serving meals to passengers and crew

Additional services for aircraft crewmembers

Aviation Security

Dining Cafe

First medical aid

Hotel reservations

Transporting crew to/from the city

Taxi booking 

Border procedures

Customs procedures

 

Today

Sunday, 30 April 2017

Weather Forecast

Siauliai °C
   

Aviation Weather Forecast

[source: ADDS]
METAR
EYSA 300250Z 28010KT 9999 SCT013 01/M01 Q1018 GRN TEMPO FEW012 BLU =
TAF
TAF EYSA 300200Z 3003/3012 28010KT 7000 OVC010 TEMPO 3003/3005 SCT005 BKN015CB BECMG 3005/3007 SCT010 OVC022 TEMPO 3007/3010 SCT016CB =
SR / SS: 02:48 / 18:01 UTC (EYSA 2017-04-30)

Search

Who's Online

We have 72 guests online

tic logo en